Puerto Banus, Marbella

>

This is an optional block (switch it off / on) in the settings - file ($SITE['banners'] = false;)

You can display ads, any other important text or photo’s using text / html or PHP code.

You can place one or more at the top and or bottom and it can all be different for content / size .



Meteosat more information blitzortung!


Radar lluvias  rain snow radar


Visita nuestra red de sitios de meteo:

Documentation for the template used

MeteoibericaRed estaciones Meteorologicas

MeteoclimaticRed estaciones Meteorologicas



Viento Desde: 19-04-2018 23:00 Hasta: 21-04-2018 04:59 Advertencias para: Viento Nivel: Amarillo info button

Pagina Historial Weather Underground texto

Diario Resumen Diciembre 30, 2017 Unidades:  Métrico    impérial   Tanto
« Anterior Dia
Siguiente Dia »
Diario Semana Mensual Anual Personalizada
  Maxima: Minima: Media:
Temperatura: -17.8 °C -10.7 °C -9.3 °C
Punto de rocío: -17.8 °C -12.7 °C -11.5 °C
Humedad: Humidity % 69 % 77 %
Velocidad del Viento: 0 km/h 0 km/h 8.5 km/h
Ráfagas de viento: 0 km/h - -
Viento:- - SW
Pression baro: 0 hPa 34693 hPa -
Précipitaciones: 0 mm    
Historical Graphs
 
 
Datos de tabla para Diciembre 30, 2017
Tiempo Temperatura Punto de rocío Pression baro Viento Velocidad del Viento Ráfagas de viento Humedad Las precipitaciones Rate ( Hora )
-17.8 °C -17.8 °C 0 hPa Calm     Humidity % 0 mm
00:03 -9.6 °C -11.6 °C 34740.4 hPa Calm     78 % 0 mm
00:06 -9.5 °C -11.6 °C 34740.4 hPa Calm     78 % 0 mm
00:11 -9.4 °C -11.7 °C 34750.5 hPa Calm     77 % 0 mm
00:12 -9.4 °C -11.7 °C 34750.5 hPa Calm     77 % 0 mm
00:13 -9.5 °C -11.8 °C 34750.5 hPa Calm     76 % 0 mm
00:18 -9.6 °C -11.9 °C 34750.5 hPa Calm     76 % 0 mm
00:19 -9.6 °C -11.9 °C 34750.5 hPa Calm     76 % 0 mm
00:24 -9.6 °C -11.8 °C 34750.5 hPa West 15 km/h 15 km/h 77 % 0 mm
00:29 -9.6 °C -11.8 °C 34750.5 hPa WNW 9 km/h 9 km/h 77 % 0 mm
00:31 -9.6 °C -11.8 °C 34750.5 hPa Calm     77 % 0 mm
00:34 -9.6 °C -11.8 °C 34740.4 hPa Calm     77 % 0 mm
00:39 -9.6 °C -11.9 °C 34750.5 hPa Calm     76 % 0 mm
00:40 -9.6 °C -11.9 °C 34750.5 hPa Calm     76 % 0 mm
00:45 -9.6 °C -11.9 °C 34750.5 hPa Calm     76 % 0 mm
00:46 -9.6 °C -11.9 °C 34750.5 hPa Calm     76 % 0 mm
00:48 -9.6 °C -11.9 °C 34750.5 hPa Calm     76 % 0 mm
00:52 -9.6 °C -11.9 °C 34740.4 hPa Calm     76 % 0 mm
00:53 -9.6 °C -11.9 °C 34740.4 hPa Calm     76 % 0 mm
00:58 -9.6 °C -11.8 °C 34750.5 hPa Calm     76 % 0 mm
00:59 -9.6 °C -11.8 °C 34740.4 hPa Calm     76 % 0 mm
01:01 -9.6 °C -11.8 °C 34740.4 hPa WNW 10.3 km/h 10.3 km/h 76 % 0 mm
01:04 -9.6 °C -11.8 °C 34740.4 hPa West 9 km/h 9 km/h 76 % 0 mm
01:09 -9.6 °C -11.8 °C 34740.4 hPa West 5.1 km/h 5.1 km/h 76 % 0 mm
01:10 -9.6 °C -11.8 °C 34740.4 hPa Calm   7.7 km/h 76 % 0 mm
01:14 -9.6 °C -11.8 °C 34740.4 hPa Calm     76 % 0 mm
01:15 -9.6 °C -11.8 °C 34740.4 hPa Calm     76 % 0 mm
01:22 -9.6 °C -12 °C 34740.4 hPa Calm     75 % 0 mm
01:27 -9.6 °C -12 °C 34740.4 hPa Calm     75 % 0 mm
01:32 -9.6 °C -11.8 °C 34740.4 hPa West 9 km/h 9 km/h 76 % 0 mm
01:36 -9.6 °C -11.9 °C 34740.4 hPa West 10.3 km/h 10.3 km/h 76 % 0 mm
01:38 -9.6 °C -11.9 °C 34740.4 hPa West 6 km/h 6 km/h 76 % 0 mm
01:43 -9.7 °C -12 °C 34740.4 hPa West 9 km/h 9 km/h 76 % 0 mm
01:44 -9.7 °C -12 °C 34740.4 hPa West 9 km/h 9 km/h 76 % 0 mm
01:49 -9.7 °C -12 °C 34726.8 hPa Calm     76 % 0 mm
01:54 -9.9 °C -12.2 °C 34726.8 hPa West 7.7 km/h 7.7 km/h 76 % 0 mm
01:58 -10.1 °C -12.2 °C 34726.8 hPa NNW 15 km/h 15 km/h 77 % 0 mm
02:03 -10.1 °C -12.3 °C 34726.8 hPa North 9 km/h 9 km/h 77 % 0 mm
02:04 -10.1 °C -12.2 °C 34726.8 hPa North 10.3 km/h 10.3 km/h 78 % 0 mm
02:08 -10.1 °C -12.2 °C 34726.8 hPa North 9 km/h 9 km/h 78 % 0 mm
02:10 -10.1 °C -12.2 °C 34726.8 hPa North 9 km/h 9 km/h 78 % 0 mm
02:15 -10.1 °C -12.2 °C 34726.8 hPa Calm     78 % 0 mm
02:16 -10.1 °C -12.1 °C 34726.8 hPa North 7.7 km/h 7.7 km/h 78 % 0 mm
02:17 -10.1 °C -12.1 °C 34726.8 hPa North 7.7 km/h 7.7 km/h 78 % 0 mm
02:22 -9.9 °C -12.1 °C 34726.8 hPa North 11.9 km/h 11.9 km/h 78 % 0 mm
02:27 -9.8 °C -12.1 °C 34726.8 hPa North 15 km/h 15 km/h 77 % 0 mm
02:29 -9.8 °C -12.1 °C 34726.8 hPa NNE 11.9 km/h 11.9 km/h 76 % 0 mm
02:34 -9.6 °C -12.1 °C 34726.8 hPa NNE 7.7 km/h 7.7 km/h 75 % 0 mm
02:37 -9.6 °C -12.1 °C 34726.8 hPa North 11.9 km/h 11.9 km/h 75 % 0 mm
02:39 -9.6 °C -12 °C 34726.8 hPa North 10.3 km/h 10.3 km/h 75 % 0 mm
02:44 -9.6 °C -12.1 °C 34726.8 hPa North 9 km/h 9 km/h 74 % 0 mm
02:45 -9.5 °C -12.1 °C 34726.8 hPa North 10.3 km/h 10.3 km/h 74 % 0 mm
02:46 -9.5 °C -12.1 °C 34726.8 hPa North 10.3 km/h 10.3 km/h 74 % 0 mm
02:51 -9.5 °C -12.1 °C 34726.8 hPa Calm     74 % 0 mm
02:53 -9.5 °C -12.1 °C 34726.8 hPa Calm     74 % 0 mm
02:57 -9.5 °C -12.1 °C 34726.8 hPa Calm     74 % 0 mm
03:02 -9.5 °C -12.1 °C 34726.8 hPa North 9 km/h 9 km/h 74 % 0 mm
03:03 -9.5 °C -12.1 °C 34726.8 hPa North 9 km/h 9 km/h 74 % 0 mm
03:08 -9.5 °C -12.1 °C 34726.8 hPa North 9 km/h 9 km/h 74 % 0 mm
03:09 -9.5 °C -12.1 °C 34726.8 hPa North 9 km/h 9 km/h 74 % 0 mm
03:11 -9.5 °C -12.1 °C 34726.8 hPa North 3.1 km/h 3.1 km/h 73 % 0 mm
03:16 -9.6 °C -12.1 °C 34726.8 hPa North 9 km/h 9 km/h 74 % 0 mm
03:21 -9.7 °C -12.2 °C 34726.8 hPa North 15.6 km/h 15.6 km/h 74 % 0 mm
03:22 -9.7 °C -12.2 °C 34726.8 hPa North 17.9 km/h 17.9 km/h 74 % 0 mm
03:27 -9.6 °C -12.2 °C 34726.8 hPa NNW 17.9 km/h 17.9 km/h 74 % 0 mm
03:28 -9.6 °C -12.2 °C 34726.8 hPa NNW 15 km/h 15 km/h 74 % 0 mm
03:33 -9.6 °C -12.1 °C 34726.8 hPa NNW 15 km/h 15 km/h 74 % 0 mm
03:35 -9.6 °C -12.1 °C 34726.8 hPa North 12.9 km/h 18.2 km/h 74 % 0 mm
03:38 -9.6 °C -12.2 °C 34726.8 hPa North 15 km/h 15 km/h 73 % 0 mm
03:40 -9.5 °C -12.1 °C 34726.8 hPa North 15 km/h 15 km/h 74 % 0 mm
03:45 -9.4 °C -12.1 °C 34726.8 hPa North 11.9 km/h 11.9 km/h 73 % 0 mm
03:46 -9.4 °C -12.1 °C 34726.8 hPa North 12.9 km/h 12.9 km/h 73 % 0 mm
03:48 -9.4 °C -12.1 °C 34726.8 hPa NNW 15 km/h 15 km/h 73 % 0 mm
03:52 -9.3 °C -12 °C 34716.7 hPa North 15.6 km/h 15.6 km/h 73 % 0 mm
03:57 -9.3 °C -12.1 °C 34716.7 hPa North 15 km/h 15 km/h 72 % 0 mm
04:02 -9.2 °C -12 °C 34716.7 hPa North 12.9 km/h 12.9 km/h 72 % 0 mm
04:03 -9.2 °C -12 °C 34716.7 hPa North 11.9 km/h 11.9 km/h 72 % 0 mm
04:08 -9.2 °C -12.1 °C 34716.7 hPa NNW 12.9 km/h 12.9 km/h 71 % 0 mm
04:09 -9.2 °C -12.1 °C 34716.7 hPa NNW 11.9 km/h 11.9 km/h 71 % 0 mm
04:14 -9.2 °C -12.1 °C 34716.7 hPa NNE 15 km/h 15 km/h 71 % 0 mm
04:20 -9.4 °C -12.1 °C 34716.7 hPa NNE 6 km/h 6 km/h 73 % 0 mm
04:25 -9.4 °C -12.1 °C 34716.7 hPa Calm     73 % 0 mm
04:27 -9.4 °C -12.1 °C 34716.7 hPa NNE 5.1 km/h 5.1 km/h 73 % 0 mm
04:32 -9.5 °C -11.9 °C 34716.7 hPa NNE 6 km/h 6 km/h 75 % 0 mm
04:37 -9.6 °C -12 °C 34716.7 hPa NNE 9 km/h 9 km/h 75 % 0 mm
04:42 -9.6 °C -12.1 °C 34716.7 hPa NNE 9 km/h 9 km/h 75 % 0 mm
04:43 -9.6 °C -12.1 °C 34716.7 hPa NNE 9 km/h 9 km/h 75 % 0 mm
04:48 -9.6 °C -12 °C 34703.1 hPa Calm     75 % 0 mm
04:49 -9.6 °C -12.1 °C 34703.1 hPa NNE 3.1 km/h   74 % 0 mm
04:53 -9.6 °C -12.1 °C 34703.1 hPa NNE 6 km/h 6 km/h 75 % 0 mm
04:55 -9.6 °C -12.1 °C 34703.1 hPa NNE 3.1 km/h 3.1 km/h 75 % 0 mm
05:00 -9.6 °C -12.1 °C 34703.1 hPa NNE 9 km/h 9 km/h 75 % 0 mm
05:02 -9.6 °C -12.1 °C 34703.1 hPa NNE 6 km/h 6 km/h 75 % 0 mm
05:06 -9.8 °C -12.2 °C 34703.1 hPa Calm     75 % 0 mm
05:07 -9.8 °C -12.3 °C 34703.1 hPa Calm     75 % 0 mm
05:12 -9.9 °C -12.1 °C 34703.1 hPa Calm     77 % 0 mm
05:13 -9.9 °C -12 °C 34703.1 hPa Calm     78 % 0 mm
05:18 -9.9 °C -11.9 °C 34703.1 hPa Calm     79 % 0 mm
05:21 -10 °C -12 °C 34703.1 hPa Calm     79 % 0 mm
05:23 -10.1 °C -12.1 °C 34703.1 hPa Calm     79 % 0 mm
05:28 -10.2 °C -12.1 °C 34703.1 hPa Calm     79 % 0 mm
05:30 -10.2 °C -12.1 °C 34703.1 hPa Calm     79 % 0 mm
05:32 -10.2 °C -12.1 °C 34703.1 hPa Calm     79 % 0 mm
05:37 -10.2 °C -12.1 °C 34703.1 hPa Calm     79 % 0 mm
05:38 -10.2 °C -12.1 °C 34703.1 hPa Calm     79 % 0 mm
05:43 -10.1 °C -12 °C 34703.1 hPa Calm     80 % 0 mm
05:48 -10.1 °C -12.1 °C 34703.1 hPa Calm     79 % 0 mm
05:49 -10.1 °C -12.1 °C 34703.1 hPa Calm     79 % 0 mm
05:54 -10.2 °C -12.2 °C 34703.1 hPa Calm     79 % 0 mm
05:55 -10.2 °C -12.1 °C 34703.1 hPa Calm     79 % 0 mm
05:56 -10.2 °C -12.2 °C 34703.1 hPa Calm     79 % 0 mm
06:01 -10.2 °C -12.1 °C 34703.1 hPa Calm     80 % 0 mm
06:06 -10.2 °C -12.1 °C 34703.1 hPa Calm     80 % 0 mm
06:07 -10.2 °C -12.1 °C 34703.1 hPa Calm     80 % 0 mm
06:12 -10.3 °C -12.3 °C 34703.1 hPa North 10.3 km/h 10.3 km/h 79 % 0 mm
06:13 -10.3 °C -12.3 °C 34703.1 hPa North 9 km/h 9 km/h 79 % 0 mm
06:14 -10.4 °C -12.3 °C 34703.1 hPa North 11.9 km/h 11.9 km/h 79 % 0 mm
06:19 -10.4 °C -12.3 °C 34703.1 hPa North 10.3 km/h 10.3 km/h 79 % 0 mm
06:24 -10.4 °C -12.4 °C 34703.1 hPa North 9 km/h 9 km/h 79 % 0 mm
06:25 -10.4 °C -12.4 °C 34703.1 hPa North 9 km/h 9 km/h 79 % 0 mm
06:30 -10.4 °C -12.4 °C 34703.1 hPa North 9 km/h 9 km/h 79 % 0 mm
06:35 -10.5 °C -12.4 °C 34703.1 hPa NNW 12.9 km/h 12.9 km/h 79 % 0 mm
06:37 -10.5 °C -12.4 °C 34703.1 hPa NNW 15 km/h 15 km/h 79 % 0 mm
06:44 -10.4 °C -12.4 °C 34703.1 hPa NNW 9 km/h 9 km/h 79 % 0 mm
06:47 -10.4 °C -12.4 °C 34716.7 hPa NNW 5.1 km/h 5.1 km/h 79 % 0 mm
06:50 -10.4 °C -12.3 °C 34716.7 hPa NNW 6 km/h 6 km/h 79 % 0 mm
06:53 -10.4 °C -12.3 °C 34716.7 hPa NNW 6 km/h 6 km/h 79 % 0 mm
06:55 -10.4 °C -12.4 °C 34716.7 hPa NNW 9 km/h 9 km/h 79 % 0 mm
06:59 -10.4 °C -12.4 °C 34703.1 hPa NNW 12.9 km/h 12.9 km/h 79 % 0 mm
07:04 -10.4 °C -12.4 °C 34716.7 hPa North 9 km/h 9 km/h 79 % 0 mm
07:06 -10.4 °C -12.4 °C 34716.7 hPa North 15 km/h 15 km/h 79 % 0 mm
07:10 -10.3 °C -12.3 °C 34716.7 hPa North 20.9 km/h 20.9 km/h 79 % 0 mm
07:15 -10.2 °C -12.3 °C 34716.7 hPa NNW 12.9 km/h 12.9 km/h 78 % 0 mm
07:18 -10.2 °C -12.3 °C 34716.7 hPa North 15 km/h 15 km/h 78 % 0 mm
07:21 -10.2 °C -12.4 °C 34716.7 hPa North 9 km/h 9 km/h 77 % 0 mm
07:26 -10.2 °C -12.4 °C 34716.7 hPa North 9 km/h 9 km/h 77 % 0 mm
07:28 -10.2 °C -12.4 °C 34716.7 hPa NNE 9 km/h 9 km/h 77 % 0 mm
07:32 -10.2 °C -12.4 °C 34716.7 hPa NNE 9 km/h 9 km/h 77 % 0 mm
07:33 -10.2 °C -12.4 °C 34716.7 hPa Calm     77 % 0 mm
07:38 -10.3 °C -12.4 °C 34716.7 hPa North 11.9 km/h 11.9 km/h 77 % 0 mm
07:39 -10.3 °C -12.4 °C 34726.8 hPa North 11.9 km/h 11.9 km/h 77 % 0 mm
07:42 -10.3 °C -12.5 °C 34726.8 hPa North 9 km/h 9 km/h 77 % 0 mm
07:47 -10.3 °C -12.4 °C 34726.8 hPa North 15 km/h 15 km/h 77 % 0 mm
07:49 -10.2 °C -12.4 °C 34726.8 hPa North 15 km/h 15 km/h 77 % 0 mm
07:50 -10.2 °C -12.4 °C 34726.8 hPa North 15 km/h 15 km/h 77 % 0 mm
07:55 -10.2 °C -12.4 °C 34726.8 hPa North 11.9 km/h 11.9 km/h 77 % 0 mm
08:00 -10.2 °C -12.4 °C 34740.4 hPa North 11.9 km/h 11.9 km/h 77 % 0 mm
08:01 -10.2 °C -12.4 °C 34740.4 hPa North 11.9 km/h 11.9 km/h 77 % 0 mm
08:03 -10.2 °C -12.4 °C 34740.4 hPa North 10.3 km/h 10.3 km/h 77 % 0 mm
08:06 -10.2 °C -12.6 °C 34740.4 hPa North 15 km/h 15 km/h 76 % 0 mm
08:10 -10.2 °C -12.6 °C 34740.4 hPa North 11.9 km/h 11.9 km/h 76 % 0 mm
08:13 -10.2 °C -12.6 °C 34740.4 hPa North 15 km/h 15 km/h 76 % 0 mm
08:18 -10.2 °C -12.6 °C 34740.4 hPa NNW 9 km/h 9 km/h 76 % 0 mm
08:23 -10.3 °C -12.6 °C 34740.4 hPa NNW 12.9 km/h 12.9 km/h 76 % 0 mm
08:27 -10.4 °C -12.6 °C 34740.4 hPa North 15.6 km/h 15.6 km/h 77 % 0 mm
08:30 -10.4 °C -12.6 °C 34740.4 hPa North 12.9 km/h 15.6 km/h 77 % 0 mm
08:35 -10.5 °C -12.7 °C 34740.4 hPa North 17.9 km/h 17.9 km/h 77 % 0 mm
08:36 -10.5 °C -12.7 °C 34740.4 hPa North 17.9 km/h 17.9 km/h 77 % 0 mm
08:41 -10.6 °C -12.6 °C 34740.4 hPa North 17.9 km/h 17.9 km/h 78 % 0 mm
08:42 -10.6 °C -12.6 °C 34740.4 hPa NNW 17.9 km/h 17.9 km/h 78 % 0 mm
08:44 -10.5 °C -12.6 °C 34740.4 hPa NNW 15 km/h 15 km/h 78 % 0 mm
08:47 -10.5 °C -12.6 °C 34740.4 hPa NNW 17.9 km/h 17.9 km/h 78 % 0 mm
08:49 -10.5 °C -12.6 °C 34740.4 hPa North 15 km/h 15 km/h 78 % 0 mm
08:54 -10.5 °C -12.7 °C 34740.4 hPa NNW 15 km/h 15 km/h 77 % 0 mm
08:59 -10.4 °C -12.7 °C 34740.4 hPa North 11.9 km/h 11.9 km/h 77 % 0 mm
09:01 -10.4 °C -12.7 °C 34740.4 hPa North 10.3 km/h 10.3 km/h 77 % 0 mm
09:06 -10.4 °C -12.6 °C 34740.4 hPa NNW 15.6 km/h 15.6 km/h 78 % 0 mm
09:07 -10.4 °C -12.6 °C 34740.4 hPa North 15 km/h 15 km/h 78 % 0 mm
09:11 -10.4 °C -12.6 °C 34740.4 hPa NNW 15.6 km/h 15.6 km/h 77 % 0 mm
09:16 -10.2 °C -12.4 °C 34740.4 hPa North 15.6 km/h 15.6 km/h 77 % 0 mm
09:21 -10.1 °C -12.4 °C 34740.4 hPa NNW 15 km/h 15 km/h 76 % 0 mm
09:26 -10.1 °C -12.3 °C 34740.4 hPa North 12.9 km/h 12.9 km/h 76 % 0 mm
09:28 -10 °C -12.3 °C 34740.4 hPa North 12.9 km/h 12.9 km/h 76 % 0 mm
09:33 -9.9 °C -12.3 °C 34750.5 hPa North 11.9 km/h 11.9 km/h 75 % 0 mm
09:34 -9.9 °C -12.3 °C 34750.5 hPa North 11.9 km/h 11.9 km/h 75 % 0 mm
09:39 -9.8 °C -12.3 °C 34750.5 hPa North 15 km/h 15 km/h 75 % 0 mm
09:44 -9.7 °C -12.2 °C 34750.5 hPa North 15.6 km/h 15.6 km/h 75 % 0 mm
09:46 -9.7 °C -12.3 °C 34750.5 hPa NNE 15.6 km/h 15.6 km/h 74 % 0 mm
09:50 -9.7 °C -12.2 °C 34750.5 hPa North 15 km/h 15 km/h 74 % 0 mm
09:54 -9.6 °C -12.2 °C 34760.7 hPa North 10.3 km/h 10.3 km/h 74 % 0 mm
09:59 -9.6 °C -12.2 °C 34750.5 hPa North 15 km/h 15 km/h 73 % 0 mm
10:00 -9.6 °C -12.2 °C 34750.5 hPa North 15 km/h 15 km/h 73 % 0 mm
10:02 -9.5 °C -12.2 °C 34750.5 hPa NNE 17.9 km/h 17.9 km/h 73 % 0 mm
10:06 -9.5 °C -12.1 °C 34760.7 hPa NNE 11.9 km/h 11.9 km/h 73 % 0 mm
10:07 -9.4 °C -12.1 °C 34760.7 hPa NNE 10.3 km/h 10.3 km/h 73 % 0 mm
10:11 -9.4 °C -12.1 °C 34760.7 hPa NNE 11.9 km/h 11.9 km/h 73 % 0 mm
10:16 -9.3 °C -12 °C 34760.7 hPa NNE 9 km/h 9 km/h 73 % 0 mm
10:20 -9.2 °C -11.9 °C 34760.7 hPa NNE 11.9 km/h 11.9 km/h 73 % 0 mm
10:22 -9.2 °C -11.8 °C 34760.7 hPa NNE 11.9 km/h 11.9 km/h 73 % 0 mm
10:27 -9.1 °C -11.8 °C 34774.2 hPa NNE 10.3 km/h 10.3 km/h 72 % 0 mm
10:28 -9.1 °C -11.8 °C 34774.2 hPa NNE 9 km/h 9 km/h 72 % 0 mm
10:30 -9 °C -11.8 °C 34760.7 hPa NNE 10.3 km/h 10.3 km/h 72 % 0 mm
10:35 -8.9 °C -11.8 °C 34760.7 hPa NNE 12.9 km/h 12.9 km/h 71 % 0 mm
10:36 -8.8 °C -11.8 °C 34760.7 hPa NNE 11.9 km/h 11.9 km/h 71 % 0 mm
10:41 -8.8 °C -11.8 °C 34774.2 hPa NNE 9 km/h 9 km/h 70 % 0 mm
10:43 -8.7 °C -11.8 °C 34774.2 hPa NNE 9 km/h 9 km/h 70 % 0 mm
10:45 -8.7 °C -11.7 °C 34774.2 hPa NNE 9 km/h 9 km/h 70 % 0 mm
10:48 -8.6 °C -11.5 °C 34774.2 hPa NNE 9 km/h 9 km/h 71 % 0 mm
10:53 -8.5 °C -11.6 °C 34774.2 hPa NNE 6 km/h 6 km/h 70 % 0 mm
10:54 -8.4 °C -11.5 °C 34774.2 hPa NNE 6 km/h 6 km/h 70 % 0 mm
10:58 -8.4 °C -11.6 °C 34774.2 hPa NNE 3.1 km/h 3.1 km/h 69 % 0 mm
11:01 -8.4 °C -11.6 °C 34774.2 hPa NNE 7.7 km/h 7.7 km/h 69 % 0 mm
11:06 -8.4 °C -11.3 °C 34774.2 hPa NNE 9 km/h 9 km/h 71 % 0 mm
11:07 -8.4 °C -11.3 °C 34774.2 hPa NNE 9 km/h 9 km/h 71 % 0 mm
11:08 -8.4 °C -11.3 °C 34774.2 hPa NNE 9 km/h 9 km/h 71 % 0 mm
11:13 -8.4 °C -11.1 °C 34784.4 hPa NNE 9 km/h 9 km/h 73 % 0 mm
11:15 -8.4 °C -11 °C 34784.4 hPa NNE 9 km/h 9 km/h 74 % 0 mm
11:20 -8.4 °C -10.9 °C 34784.4 hPa NNE 6 km/h 6 km/h 75 % 0 mm
11:21 -8.5 °C -10.9 °C 34784.4 hPa North 9 km/h 9 km/h 75 % 0 mm
11:23 -8.5 °C -11 °C 34784.4 hPa North 9 km/h 9 km/h 75 % 0 mm
11:28 -8.7 °C -11.1 °C 34784.4 hPa NNW 9 km/h 9 km/h 75 % 0 mm
11:29 -8.7 °C -11.1 °C 34784.4 hPa WNW 10.3 km/h 10.3 km/h 75 % 0 mm
11:33 -8.7 °C -11.1 °C 34784.4 hPa WSW 10.3 km/h 10.3 km/h 76 % 0 mm
11:34 -8.7 °C -11.1 °C 34784.4 hPa WSW 11.9 km/h 11.9 km/h 76 % 0 mm
11:39 -8.8 °C -11.2 °C 34784.4 hPa WSW 9 km/h 9 km/h 76 % 0 mm
11:44 -8.8 °C -11.3 °C 34784.4 hPa WSW 12.9 km/h 12.9 km/h 75 % 0 mm
11:45 -8.8 °C -11.3 °C 34784.4 hPa WSW 12.9 km/h 12.9 km/h 75 % 0 mm
11:47 -8.8 °C -11.3 °C 34784.4 hPa WSW 11.9 km/h 11.9 km/h 75 % 0 mm
11:52 -8.8 °C -11.3 °C 34784.4 hPa WSW 9 km/h 9 km/h 75 % 0 mm
11:58 -8.8 °C -11.3 °C 34784.4 hPa WSW 10.3 km/h 10.3 km/h 74 % 0 mm
12:01 -8.7 °C -11.3 °C 34784.4 hPa WSW 10.3 km/h 10.3 km/h 74 % 0 mm
12:03 -8.7 °C -11.2 °C 34784.4 hPa WSW 12.9 km/h 12.9 km/h 75 % 0 mm
12:07 -8.7 °C -11.2 °C 34784.4 hPa WSW 9 km/h 9 km/h 75 % 0 mm
12:12 -8.6 °C -10.9 °C 34784.4 hPa WSW 10.3 km/h 10.3 km/h 76 % 0 mm
12:17 -8.6 °C -11.1 °C 34774.2 hPa WSW 10.3 km/h 10.3 km/h 75 % 0 mm
12:18 -8.7 °C -11.1 °C 34774.2 hPa WSW 9 km/h 9 km/h 75 % 0 mm
12:23 -8.6 °C -11.2 °C 34774.2 hPa WSW 12.9 km/h 12.9 km/h 74 % 0 mm
12:24 -8.6 °C -11.2 °C 34774.2 hPa WSW 12.9 km/h 12.9 km/h 74 % 0 mm
12:29 -8.6 °C -11.3 °C 34774.2 hPa WSW 10.3 km/h 10.3 km/h 73 % 0 mm
12:32 -8.5 °C -11.3 °C 34774.2 hPa SW 15 km/h 15 km/h 72 % 0 mm
12:36 -8.4 °C -11.2 °C 34774.2 hPa SW 15 km/h 15 km/h 73 % 0 mm
12:41 -8.5 °C -11.3 °C 34774.2 hPa SW 12.9 km/h 12.9 km/h 72 % 0 mm
12:43 -8.5 °C -11.3 °C 34774.2 hPa SW 15 km/h 15 km/h 72 % 0 mm
12:48 -8.4 °C -11.2 °C 34760.7 hPa SW 11.9 km/h 11.9 km/h 72 % 0 mm
12:53 -8.4 °C -11.1 °C 34760.7 hPa SW 15 km/h 15 km/h 73 % 0 mm
12:54 -8.4 °C -11 °C 34760.7 hPa SW 15 km/h 15 km/h 74 % 0 mm
12:55 -8.4 °C -11 °C 34760.7 hPa SW 12.9 km/h 12.9 km/h 74 % 0 mm
13:00 -8.4 °C -11.1 °C 34760.7 hPa WSW 15.6 km/h 15.6 km/h 74 % 0 mm
13:02 -8.5 °C -11.1 °C 34760.7 hPa WSW 15 km/h 15 km/h 74 % 0 mm
13:03 -8.5 °C -11.1 °C 34760.7 hPa WSW 11.9 km/h 11.9 km/h 74 % 0 mm
13:08 -8.4 °C -11 °C 34760.7 hPa WSW 12.9 km/h 12.9 km/h 74 % 0 mm
13:13 -8.4 °C -10.9 °C 34760.7 hPa WSW 11.9 km/h 11.9 km/h 75 % 0 mm
13:18 -8.3 °C -10.8 °C 34760.7 hPa WSW 11.9 km/h 11.9 km/h 75 % 0 mm
13:19 -8.3 °C -10.8 °C 34760.7 hPa WSW 11.9 km/h 11.9 km/h 75 % 0 mm
13:24 -8.3 °C -10.8 °C 34750.5 hPa WSW 11.9 km/h 11.9 km/h 75 % 0 mm
13:29 -8.3 °C -10.8 °C 34750.5 hPa WSW 9 km/h 9 km/h 75 % 0 mm
13:30 -8.3 °C -10.7 °C 34750.5 hPa WSW 9 km/h 9 km/h 75 % 0 mm
13:35 -8.2 °C -10.7 °C 34750.5 hPa WSW 9 km/h 9 km/h 75 % 0 mm
13:36 -8.2 °C -10.8 °C 34750.5 hPa WSW 9 km/h 9 km/h 74 % 0 mm
13:42 -8.1 °C -10.7 °C 34750.5 hPa WSW 9 km/h 9 km/h 74 % 0 mm
13:47 -8.1 °C -10.9 °C 34750.5 hPa WSW 9 km/h 9 km/h 72 % 0 mm
13:52 -8 °C -10.6 °C 34740.4 hPa WSW 9 km/h 9 km/h 74 % 0 mm
13:54 -8 °C -10.6 °C 34740.4 hPa WSW 9 km/h 9 km/h 74 % 0 mm
13:55 -8 °C -10.5 °C 34740.4 hPa WSW 9 km/h 9 km/h 75 % 0 mm
14:00 -8 °C -10.4 °C 34740.4 hPa WSW 9 km/h 9 km/h 76 % 0 mm
14:01 -7.9 °C -10.3 °C 34740.4 hPa WSW 9 km/h 9 km/h 76 % 0 mm
14:06 -8.1 °C -10.6 °C 34740.4 hPa WSW 9 km/h 9 km/h 75 % 0 mm
14:07 -8.1 °C -10.6 °C 34740.4 hPa WSW 9 km/h 9 km/h 75 % 0 mm
14:09 -8.1 °C -10.4 °C 34740.4 hPa WSW 9 km/h 9 km/h 76 % 0 mm
14:12 -8 °C -10.3 °C 34740.4 hPa WSW 9 km/h 9 km/h 77 % 0 mm
14:16 -7.9 °C -10.2 °C 34726.8 hPa WSW 6 km/h 6 km/h 77 % 0 mm
14:17 -7.9 °C -10.2 °C 34726.8 hPa WSW 11.9 km/h 11.9 km/h 77 % 0 mm
14:22 -7.9 °C -10.1 °C 34726.8 hPa WSW 5.1 km/h 5.1 km/h 78 % 0 mm
14:23 -7.9 °C -10.1 °C 34726.8 hPa WSW 3.1 km/h 3.1 km/h 78 % 0 mm
14:25 -7.8 °C -10 °C 34726.8 hPa WSW 6 km/h 6 km/h 78 % 0 mm
14:28 -7.8 °C -9.9 °C 34726.8 hPa WSW 3.1 km/h 3.1 km/h 78 % 0 mm
14:33 -7.8 °C -9.8 °C 34716.7 hPa Calm     79 % 0 mm
14:36 -7.7 °C -9.8 °C 34716.7 hPa Calm     79 % 0 mm
14:41 -7.7 °C -9.8 °C 34716.7 hPa Calm     79 % 0 mm
14:43 -7.7 °C -9.8 °C 34716.7 hPa WSW 3.1 km/h   79 % 0 mm
14:48 -7.7 °C -9.8 °C 34716.7 hPa Calm     79 % 0 mm
14:49 -7.7 °C -9.8 °C 34716.7 hPa Calm     79 % 0 mm
14:50 -7.7 °C -9.8 °C 34716.7 hPa Calm     79 % 0 mm
14:55 -7.9 °C -9.9 °C 34716.7 hPa WSW 3.1 km/h 3.1 km/h 79 % 0 mm
14:58 -7.9 °C -9.9 °C 34716.7 hPa Calm     80 % 0 mm
15:03 -8.1 °C -10.1 °C 34716.7 hPa WSW 6 km/h 6 km/h 80 % 0 mm
15:04 -8.1 °C -9.9 °C 34716.7 hPa WSW 9 km/h 9 km/h 81 % 0 mm
15:08 -8.2 °C -9.9 °C 34703.1 hPa WSW 5.1 km/h 5.1 km/h 82 % 0 mm
15:13 -8.3 °C -10.1 °C 34703.1 hPa WSW 6 km/h 6 km/h 82 % 0 mm
15:14 -8.4 °C -10.1 °C 34703.1 hPa WSW 9 km/h 9 km/h 82 % 0 mm
15:16 -8.4 °C -10.1 °C 34703.1 hPa WSW 9 km/h 9 km/h 82 % 0 mm
15:20 -8.4 °C -10.2 °C 34703.1 hPa WSW 9 km/h 9 km/h 82 % 0 mm
15:25 -8.6 °C -10.2 °C 34703.1 hPa WSW 7.7 km/h 7.7 km/h 83 % 0 mm
15:30 -8.7 °C -10.3 °C 34693 hPa WSW 6 km/h 6 km/h 83 % 0 mm
15:35 -8.7 °C -10.2 °C 34693 hPa Calm     84 % 0 mm
15:36 -8.7 °C -10.2 °C 34693 hPa Calm     84 % 0 mm
15:41 -8.7 °C -10.2 °C 34693 hPa WSW 3.1 km/h 3.1 km/h 84 % 0 mm
15:43 -8.7 °C -10.1 °C 34693 hPa WSW 6 km/h 6 km/h 85 % 0 mm
15:46 -8.7 °C -10.1 °C 34693 hPa WSW 3.1 km/h 3.1 km/h 85 % 0 mm
15:50 -8.7 °C -10.1 °C 34693 hPa Calm     85 % 0 mm
15:55 -8.6 °C -10.1 °C 34693 hPa Calm     85 % 0 mm
15:56 -8.6 °C -10 °C 34693 hPa Calm     85 % 0 mm
15:59 -8.6 °C -10 °C 34693 hPa Calm     85 % 0 mm
16:01 -8.6 °C -9.9 °C 34693 hPa Calm     85 % 0 mm
16:06 -8.3 °C -9.7 °C 34693 hPa Calm     85 % 0 mm
16:08 -8.2 °C -9.7 °C 34693 hPa Calm     85 % 0 mm
16:12 -8.2 °C -9.7 °C 34693 hPa Calm     84 % 0 mm
16:14 -8.2 °C -9.7 °C 34693 hPa WSW 3.1 km/h   84 % 0 mm
16:17 -8.1 °C -9.6 °C 34693 hPa Calm     84 % 0 mm
16:21 -8 °C -9.5 °C 34693 hPa Calm     84 % 0 mm
16:22 -7.9 °C -9.6 °C 34703.1 hPa Calm     83 % 0 mm
16:27 -8 °C -9.8 °C 34693 hPa WSW 6 km/h 6 km/h 82 % 0 mm
16:29 -8 °C -9.8 °C 34703.1 hPa WSW 6 km/h 6 km/h 82 % 0 mm
16:34 -8 °C -9.8 °C 34693 hPa Calm     82 % 0 mm
16:35 -8 °C -9.8 °C 34693 hPa Calm     82 % 0 mm
16:40 -8 °C -9.8 °C 34693 hPa WSW 9 km/h 9 km/h 82 % 0 mm
16:41 -8 °C -9.8 °C 34703.1 hPa WSW 9 km/h 9 km/h 82 % 0 mm
16:46 -8 °C -9.8 °C 34693 hPa WSW 9 km/h 9 km/h 82 % 0 mm
16:47 -8 °C -9.8 °C 34693 hPa WSW 9 km/h 9 km/h 82 % 0 mm
16:52 -8.1 °C -9.9 °C 34693 hPa WSW 10.3 km/h 10.3 km/h 81 % 0 mm
16:54 -8.2 °C -10.1 °C 34693 hPa WSW 11.9 km/h 11.9 km/h 80 % 0 mm
16:56 -8.2 °C -10.2 °C 34703.1 hPa WSW 9 km/h 9 km/h 80 % 0 mm
17:00 -8.3 °C -10.3 °C 34693 hPa WSW 10.3 km/h 10.3 km/h 79 % 0 mm
17:01 -8.3 °C -10.4 °C 34703.1 hPa WSW 9 km/h 9 km/h 79 % 0 mm
17:06 -8.3 °C -10.4 °C 34693 hPa WSW 7.7 km/h 7.7 km/h 79 % 0 mm
17:08 -8.3 °C -10.4 °C 34693 hPa WSW 9 km/h 9 km/h 78 % 0 mm
17:13 -8.3 °C -10.6 °C 34693 hPa WSW 9 km/h 9 km/h 77 % 0 mm
17:14 -8.3 °C -10.6 °C 34693 hPa WSW 9 km/h 9 km/h 77 % 0 mm
17:19 -8.2 °C -10.6 °C 34693 hPa WSW 10.3 km/h 10.3 km/h 76 % 0 mm
17:20 -8.2 °C -10.6 °C 34693 hPa WSW 9 km/h 9 km/h 76 % 0 mm
17:25 -8.2 °C -10.6 °C 34693 hPa WSW 10.3 km/h 10.3 km/h 76 % 0 mm
17:30 -8.2 °C -10.5 °C 34693 hPa WSW 9 km/h 9 km/h 77 % 0 mm
17:31 -8.2 °C -10.5 °C 34693 hPa WSW 10.3 km/h 10.3 km/h 77 % 0 mm
17:36 -8.3 °C -10.6 °C 34693 hPa WSW 10.3 km/h 10.3 km/h 77 % 0 mm
17:37 -8.3 °C -10.6 °C 34693 hPa WSW 10.3 km/h 10.3 km/h 77 % 0 mm
17:40 -8.4 °C -10.6 °C 34693 hPa WSW 9 km/h 9 km/h 77 % 0 mm
17:44 -8.4 °C -10.6 °C 34693 hPa WSW 6 km/h 6 km/h 78 % 0 mm
17:49 -8.4 °C -10.6 °C 34693 hPa WSW 6 km/h 6 km/h 78 % 0 mm
17:50 -8.4 °C -10.6 °C 34693 hPa WSW 6 km/h 6 km/h 78 % 0 mm
17:55 -8.4 °C -10.6 °C 34693 hPa WSW 6 km/h 6 km/h 78 % 0 mm
17:58 -8.5 °C -10.6 °C 34693 hPa WSW 6 km/h 6 km/h 78 % 0 mm
18:00 -8.5 °C -10.7 °C 34693 hPa WSW 9 km/h 9 km/h 78 % 0 mm
18:03 -8.6 °C -10.7 °C 34693 hPa WSW 9 km/h 9 km/h 78 % 0 mm
18:08 -8.6 °C -10.7 °C 34693 hPa WSW 9 km/h 9 km/h 78 % 0 mm
18:09 -8.6 °C -10.9 °C 34703.1 hPa WSW 9 km/h 9 km/h 77 % 0 mm
18:12 -8.7 °C -10.8 °C 34703.1 hPa WSW 9 km/h 9.3 km/h 78 % 0 mm
18:15 -8.7 °C -10.8 °C 34703.1 hPa WSW 9 km/h 9 km/h 78 % 0 mm
18:18 -8.7 °C -10.8 °C 34703.1 hPa WSW 9 km/h 9 km/h 78 % 0 mm
18:23 -8.7 °C -10.8 °C 34703.1 hPa WSW 10.3 km/h 10.3 km/h 78 % 0 mm
18:28 -8.7 °C -10.9 °C 34703.1 hPa WSW 9 km/h 9 km/h 78 % 0 mm
18:30 -8.8 °C -10.9 °C 34703.1 hPa WSW 9 km/h 9 km/h 78 % 0 mm
18:33 -8.8 °C -10.9 °C 34703.1 hPa WSW 9 km/h 9 km/h 78 % 0 mm
18:38 -8.8 °C -11.1 °C 34716.7 hPa WSW 9 km/h 9 km/h 77 % 0 mm
18:39 -8.8 °C -11.1 °C 34716.7 hPa WSW 9 km/h 9 km/h 77 % 0 mm
18:44 -8.8 °C -11.1 °C 34716.7 hPa WSW 9 km/h 9 km/h 77 % 0 mm
18:49 -8.8 °C -11.1 °C 34716.7 hPa WSW 6 km/h 6 km/h 77 % 0 mm
18:51 -8.8 °C -11.1 °C 34716.7 hPa WSW 9 km/h 9 km/h 77 % 0 mm
18:56 -8.8 °C -11.1 °C 34716.7 hPa WSW 6 km/h 6 km/h 77 % 0 mm
18:58 -8.8 °C -11.1 °C 34716.7 hPa WSW 6 km/h 6 km/h 77 % 0 mm
19:02 -8.8 °C -11.1 °C 34716.7 hPa WSW 6 km/h 6 km/h 77 % 0 mm
19:06 -8.8 °C -10.9 °C 34716.7 hPa WSW 6 km/h 6 km/h 78 % 0 mm
19:09 -8.8 °C -11 °C 34716.7 hPa WSW 9 km/h 9 km/h 78 % 0 mm
19:14 -9 °C -11.1 °C 34716.7 hPa WSW 9 km/h 9 km/h 78 % 0 mm
19:15 -9 °C -11.2 °C 34716.7 hPa WSW 9 km/h 9 km/h 78 % 0 mm
19:16 -9 °C -11 °C 34716.7 hPa WSW 9 km/h 9 km/h 79 % 0 mm
19:21 -9.2 °C -11.2 °C 34716.7 hPa WSW 9 km/h 9 km/h 79 % 0 mm
19:22 -9.2 °C -11.2 °C 34716.7 hPa WSW 9 km/h 9 km/h 79 % 0 mm
19:27 -9.2 °C -11.1 °C 34716.7 hPa Calm     80 % 0 mm
19:28 -9.2 °C -11.1 °C 34716.7 hPa Calm     80 % 0 mm
19:33 -9.2 °C -11.1 °C 34716.7 hPa Calm     80 % 0 mm
19:34 -9.2 °C -11.1 °C 34716.7 hPa Calm     80 % 0 mm
19:36 -9.2 °C -11.1 °C 34716.7 hPa Calm     80 % 0 mm
19:40 -9.2 °C -11.2 °C 34716.7 hPa Calm     80 % 0 mm
19:45 -9.3 °C -11.2 °C 34716.7 hPa WSW 6 km/h 6 km/h 80 % 0 mm
19:46 -9.3 °C -11.2 °C 34716.7 hPa WSW 6 km/h 6 km/h 80 % 0 mm
19:51 -9.3 °C -11.2 °C 34716.7 hPa WSW 10.3 km/h 10.3 km/h 81 % 0 mm
19:52 -9.3 °C -11.2 °C 34726.8 hPa WSW 11.9 km/h 11.9 km/h 81 % 0 mm
19:53 -9.4 °C -11.2 °C 34726.8 hPa WSW 9 km/h 9 km/h 81 % 0 mm
19:58 -9.4 °C -11.2 °C 34726.8 hPa WSW 9 km/h 9 km/h 81 % 0 mm
20:00 -9.4 °C -11.2 °C 34726.8 hPa WSW 6 km/h 6 km/h 81 % 0 mm
20:05 -9.4 °C -11.2 °C 34726.8 hPa WSW 9 km/h 9 km/h 81 % 0 mm
20:10 -9.4 °C -11.2 °C 34726.8 hPa WSW 9 km/h 9 km/h 81 % 0 mm
20:15 -9.4 °C -11.2 °C 34740.4 hPa WSW 9 km/h 9 km/h 81 % 0 mm
20:16 -9.4 °C -11.2 °C 34740.4 hPa WSW 9 km/h 9 km/h 81 % 0 mm
20:18 -9.4 °C -11.2 °C 34740.4 hPa WSW 9 km/h 9 km/h 81 % 0 mm
20:23 -9.4 °C -11.2 °C 34740.4 hPa WSW 6 km/h   81 % 0 mm
20:25 -9.4 °C -11.2 °C 34740.4 hPa Calm     81 % 0 mm
20:26 -9.4 °C -11.2 °C 34740.4 hPa Calm     81 % 0 mm
20:31 -9.4 °C -11.2 °C 34740.4 hPa Calm     81 % 0 mm
20:35 -9.5 °C -11.3 °C 34740.4 hPa Calm     81 % 0 mm
20:36 -9.5 °C -11.3 °C 34740.4 hPa Calm     81 % 0 mm
20:41 -9.5 °C -11.3 °C 34740.4 hPa Calm     81 % 0 mm
20:43 -9.5 °C -11.3 °C 34740.4 hPa Calm     81 % 0 mm
20:48 -9.6 °C -11.3 °C 34750.5 hPa Calm     81 % 0 mm
20:50 -9.6 °C -11.3 °C 34740.4 hPa Calm     81 % 0 mm
20:53 -9.6 °C -11.3 °C 34740.4 hPa Calm     82 % 0 mm
20:57 -9.6 °C -11.3 °C 34750.5 hPa WSW 10.3 km/h 10.3 km/h 81 % 0 mm
20:58 -9.6 °C -11.3 °C 34750.5 hPa WSW 9 km/h 9 km/h 81 % 0 mm
21:03 -9.6 °C -11.3 °C 34750.5 hPa West 9 km/h 9 km/h 81 % 0 mm
21:08 -9.6 °C -11.3 °C 34750.5 hPa Calm     81 % 0 mm
21:09 -9.6 °C -11.3 °C 34750.5 hPa Calm     81 % 0 mm
21:14 -9.6 °C -11.5 °C 34750.5 hPa West 9 km/h 9.3 km/h 80 % 0 mm
21:15 -9.6 °C -11.5 °C 34750.5 hPa West 11.9 km/h 11.9 km/h 80 % 0 mm
21:16 -9.6 °C -11.5 °C 34750.5 hPa West 11.9 km/h 11.9 km/h 80 % 0 mm
21:21 -9.6 °C -11.5 °C 34750.5 hPa NW 11.9 km/h 11.9 km/h 80 % 0 mm
21:22 -9.6 °C -11.5 °C 34750.5 hPa NW 9 km/h 9 km/h 80 % 0 mm
21:27 -9.7 °C -11.6 °C 34750.5 hPa NW 12.9 km/h 12.9 km/h 80 % 0 mm
21:32 -9.7 °C -11.6 °C 34750.5 hPa NNW 15 km/h 15 km/h 80 % 0 mm
21:33 -9.7 °C -11.6 °C 34750.5 hPa NNW 15 km/h 15 km/h 80 % 0 mm
21:36 -9.7 °C -11.6 °C 34750.5 hPa NNW 11.9 km/h 11.9 km/h 80 % 0 mm
21:38 -9.8 °C -11.6 °C 34750.5 hPa NNW 15.6 km/h 15.6 km/h 80 % 0 mm
21:43 -9.8 °C -11.7 °C 34750.5 hPa NNW 11.9 km/h 11.9 km/h 80 % 0 mm
21:44 -9.8 °C -11.7 °C 34750.5 hPa NNW 11.9 km/h 11.9 km/h 80 % 0 mm
21:47 -9.8 °C -11.6 °C 34750.5 hPa NNW 9 km/h 9.7 km/h 81 % 0 mm
21:52 -9.9 °C -11.7 °C 34750.5 hPa North 11.9 km/h 11.9 km/h 81 % 0 mm
21:53 -9.9 °C -11.8 °C 34750.5 hPa North 11.9 km/h 11.9 km/h 81 % 0 mm
21:58 -10.1 °C -11.8 °C 34740.4 hPa North 15.6 km/h 15.6 km/h 81 % 0 mm
22:00 -10.1 °C -11.8 °C 34740.4 hPa North 15 km/h 15 km/h 81 % 0 mm
22:05 -10.1 °C -11.8 °C 34740.4 hPa North 17.9 km/h 17.9 km/h 82 % 0 mm
22:06 -10.1 °C -11.8 °C 34750.5 hPa North 15 km/h 15 km/h 82 % 0 mm
22:11 -10.2 °C -11.8 °C 34740.4 hPa North 12.9 km/h 12.9 km/h 82 % 0 mm
22:15 -10.2 °C -11.8 °C 34740.4 hPa North 12.9 km/h 15.6 km/h 82 % 0 mm
22:18 -10.2 °C -11.9 °C 34740.4 hPa North 15.6 km/h 15.6 km/h 82 % 0 mm
22:23 -10.3 °C -11.9 °C 34740.4 hPa North 15 km/h 15 km/h 82 % 0 mm
22:28 -10.3 °C -12 °C 34740.4 hPa North 9 km/h 9 km/h 82 % 0 mm
22:31 -10.3 °C -12 °C 34740.4 hPa North 9 km/h 9 km/h 82 % 0 mm
22:36 -10.4 °C -11.9 °C 34740.4 hPa North 11.9 km/h 11.9 km/h 83 % 0 mm
22:40 -10.4 °C -11.9 °C 34740.4 hPa North 7.7 km/h 12.9 km/h 83 % 0 mm
22:42 -10.4 °C -12 °C 34740.4 hPa North 12.9 km/h 12.9 km/h 83 % 0 mm
22:47 -10.4 °C -11.9 °C 34740.4 hPa North 17.9 km/h 17.9 km/h 83 % 0 mm
22:48 -10.3 °C -11.9 °C 34740.4 hPa North 17.9 km/h 17.9 km/h 83 % 0 mm
22:53 -10.3 °C -12 °C 34740.4 hPa North 11.9 km/h 11.9 km/h 82 % 0 mm
22:54 -10.3 °C -12 °C 34740.4 hPa North 11.9 km/h 11.9 km/h 82 % 0 mm
22:59 -10.3 °C -12 °C 34740.4 hPa North 11.9 km/h 11.9 km/h 82 % 0 mm
23:02 -10.3 °C -12 °C 34740.4 hPa North 12.9 km/h 12.9 km/h 82 % 0 mm
23:04 -10.3 °C -12 °C 34740.4 hPa North 11.9 km/h 11.9 km/h 82 % 0 mm
23:09 -10.3 °C -12 °C 34740.4 hPa North 11.9 km/h 11.9 km/h 82 % 0 mm
23:10 -10.3 °C -12 °C 34740.4 hPa North 11.9 km/h 11.9 km/h 82 % 0 mm
23:13 -10.4 °C -12.1 °C 34740.4 hPa North 15 km/h 15 km/h 82 % 0 mm
23:15 -10.4 °C -12.1 °C 34740.4 hPa North 11.9 km/h 11.9 km/h 82 % 0 mm
23:20 -10.4 °C -12.1 °C 34740.4 hPa North 11.9 km/h 11.9 km/h 82 % 0 mm
23:21 -10.4 °C -12.1 °C 34740.4 hPa North 11.9 km/h 11.9 km/h 82 % 0 mm
23:26 -10.4 °C -12.1 °C 34740.4 hPa North 15.6 km/h 15.6 km/h 82 % 0 mm
23:30 -10.4 °C -12.1 °C 34740.4 hPa North 15 km/h 15 km/h 82 % 0 mm
23:31 -10.5 °C -12.2 °C 34740.4 hPa North 20.8 km/h 20.8 km/h 82 % 0 mm
23:36 -10.5 °C -12.2 °C 34740.4 hPa North 23.8 km/h 23.8 km/h 82 % 0 mm
23:37 -10.5 °C -12.2 °C 34740.4 hPa North 23.8 km/h 23.8 km/h 82 % 0 mm
23:42 -10.6 °C -12.3 °C 34726.8 hPa North 23.8 km/h 23.8 km/h 82 % 0 mm
23:43 -10.6 °C -12.3 °C 34726.8 hPa North 18.2 km/h 18.2 km/h 82 % 0 mm
23:48 -10.6 °C -12.2 °C 34740.4 hPa North 23.3 km/h 23.3 km/h 83 % 0 mm
23:50 -10.7 °C -12.2 °C 34740.4 hPa North 17.9 km/h 17.9 km/h 83 % 0 mm
23:54 -10.6 °C -12.2 °C 34740.4 hPa North 20.9 km/h 20.9 km/h 83 % 0 mm
23:59 -10.6 °C -12.2 °C 34740.4 hPa North 15 km/h 15 km/h 83 % 0 mm
Puerto Banus, Marbella
Elogios de Weather Underground - 2.5 mb

Guión original por  Jim McMurry - jmcmurry@mwt.net Adaptado para la plantilla por  Wim van der Kuil - Leuven-Template.eu

Usted encontrará nuestra información del tiempo también en:

Weather Underground

Iberian Peninsula Weather Network